createdAt,value
2022-12-22T00:00:01.357Z,10.80
2022-12-22T00:02:27.979Z,10.80
2022-12-22T00:04:54.559Z,10.80
2022-12-22T00:07:21.020Z,10.90
2022-12-22T00:09:47.482Z,10.90
2022-12-22T00:12:13.947Z,10.90
2022-12-22T00:14:40.416Z,10.80
2022-12-22T00:17:06.924Z,10.80
2022-12-22T00:19:33.462Z,10.80
2022-12-22T00:21:59.946Z,10.80
2022-12-22T00:24:26.415Z,10.80
2022-12-22T00:26:52.884Z,10.80
2022-12-22T00:29:19.358Z,10.80
2022-12-22T00:31:45.800Z,10.80
2022-12-22T00:34:12.278Z,10.80
2022-12-22T00:36:38.751Z,10.90
2022-12-22T00:39:05.229Z,10.80
2022-12-22T00:41:31.708Z,10.70
2022-12-22T00:43:58.192Z,10.80
2022-12-22T00:46:24.695Z,10.80
2022-12-22T00:48:51.183Z,10.90
2022-12-22T00:51:17.646Z,10.80
2022-12-22T00:53:44.132Z,10.80
2022-12-22T00:56:10.638Z,10.80
2022-12-22T00:58:37.098Z,10.80
2022-12-22T01:01:03.594Z,10.80
2022-12-22T01:03:30.098Z,10.80
2022-12-22T01:05:56.683Z,10.80
2022-12-22T01:08:23.144Z,10.80
2022-12-22T01:10:49.599Z,10.80
2022-12-22T01:13:16.115Z,10.90
2022-12-22T01:15:42.641Z,10.90
2022-12-22T01:18:09.152Z,10.90
2022-12-22T01:20:35.635Z,10.90
2022-12-22T01:23:02.088Z,10.90
2022-12-22T01:25:28.562Z,10.90
2022-12-22T01:27:55.022Z,10.90
2022-12-22T01:30:21.513Z,10.90
2022-12-22T01:32:47.981Z,10.90
2022-12-22T01:35:14.442Z,10.90
2022-12-22T01:37:40.898Z,10.80
2022-12-22T01:40:07.383Z,10.90
2022-12-22T01:42:33.832Z,10.90
2022-12-22T01:45:00.304Z,10.90
2022-12-22T01:47:26.786Z,10.90
2022-12-22T01:49:53.259Z,10.80
2022-12-22T01:52:19.732Z,10.80
2022-12-22T01:54:46.184Z,10.80
2022-12-22T01:57:12.637Z,10.80
2022-12-22T01:59:39.238Z,10.90
2022-12-22T02:02:05.873Z,10.90
2022-12-22T02:04:32.393Z,10.80
2022-12-22T02:07:00.475Z,10.90
2022-12-22T02:09:27.236Z,11.00
2022-12-22T02:11:53.706Z,10.90
2022-12-22T02:14:24.736Z,11.00
2022-12-22T02:16:54.355Z,11.00
2022-12-22T02:19:20.837Z,11.00
2022-12-22T02:21:47.327Z,10.90
2022-12-22T02:24:13.801Z,10.90
2022-12-22T02:26:40.284Z,10.90
2022-12-22T02:29:06.749Z,10.90
2022-12-22T02:31:33.307Z,10.90
2022-12-22T02:33:59.801Z,10.90
2022-12-22T02:36:26.285Z,11.00
2022-12-22T02:38:52.746Z,10.90
2022-12-22T02:41:19.319Z,10.90
2022-12-22T02:43:45.797Z,11.00
2022-12-22T02:46:12.280Z,11.00
2022-12-22T02:48:38.806Z,11.10
2022-12-22T02:51:05.268Z,11.00
2022-12-22T02:53:31.729Z,11.00
2022-12-22T02:55:58.200Z,11.00
2022-12-22T02:58:24.712Z,11.00
2022-12-22T03:00:51.178Z,11.00
2022-12-22T03:03:17.901Z,11.00
2022-12-22T03:05:44.514Z,11.00
2022-12-22T03:08:10.990Z,11.00
2022-12-22T03:10:37.438Z,11.10
2022-12-22T03:13:03.922Z,11.00
2022-12-22T03:15:30.400Z,11.00
2022-12-22T03:17:56.935Z,11.00
2022-12-22T03:20:23.396Z,11.00
2022-12-22T03:22:49.870Z,11.10
2022-12-22T03:25:16.344Z,11.00
2022-12-22T03:27:42.810Z,11.00
2022-12-22T03:30:09.279Z,11.00
2022-12-22T03:32:35.756Z,11.00
2022-12-22T03:35:02.220Z,10.90
2022-12-22T03:37:28.681Z,11.00
2022-12-22T03:39:55.171Z,11.10
2022-12-22T03:42:21.645Z,11.00
2022-12-22T03:44:48.113Z,11.00
2022-12-22T03:47:14.676Z,11.00
2022-12-22T03:49:41.185Z,11.00
2022-12-22T03:52:07.638Z,11.00
2022-12-22T03:54:34.120Z,11.00
2022-12-22T03:57:00.588Z,11.10
2022-12-22T03:59:27.936Z,11.00
2022-12-22T04:01:54.784Z,11.00
2022-12-22T04:04:21.446Z,11.00
2022-12-22T04:06:47.902Z,11.00
2022-12-22T04:09:14.389Z,11.10
2022-12-22T04:11:40.859Z,11.00
2022-12-22T04:14:07.338Z,11.00
2022-12-22T04:16:33.867Z,11.00
2022-12-22T04:19:00.400Z,11.00
2022-12-22T04:21:26.865Z,11.00
2022-12-22T04:23:53.357Z,11.10
2022-12-22T04:26:19.846Z,11.00
2022-12-22T04:28:46.310Z,11.00
2022-12-22T04:31:12.804Z,11.00
2022-12-22T04:33:39.267Z,11.00
2022-12-22T04:36:05.727Z,10.90
2022-12-22T04:38:32.199Z,11.00
2022-12-22T04:40:58.687Z,11.10
2022-12-22T04:43:25.172Z,11.00
2022-12-22T04:45:51.714Z,11.00
2022-12-22T04:48:18.196Z,11.00
2022-12-22T04:50:44.738Z,11.00
2022-12-22T04:53:11.220Z,11.00
2022-12-22T04:55:37.697Z,11.00
2022-12-22T04:58:04.155Z,11.00
2022-12-22T05:00:30.612Z,11.00
2022-12-22T05:02:57.197Z,11.00
2022-12-22T05:05:23.719Z,11.00
2022-12-22T05:07:50.169Z,11.00
2022-12-22T05:10:16.651Z,11.00
2022-12-22T05:12:43.115Z,11.00
2022-12-22T05:15:09.615Z,11.10
2022-12-22T05:17:36.075Z,11.00
2022-12-22T05:20:02.560Z,11.10
2022-12-22T05:22:29.037Z,11.00
2022-12-22T05:24:55.515Z,11.00
2022-12-22T05:27:21.969Z,11.10
2022-12-22T05:29:48.436Z,11.00
2022-12-22T05:32:14.905Z,11.10
2022-12-22T05:34:41.386Z,11.10
2022-12-22T05:37:07.856Z,11.10
2022-12-22T05:39:34.294Z,11.10
2022-12-22T05:42:00.759Z,11.00
2022-12-22T05:44:27.258Z,11.00
2022-12-22T05:46:53.721Z,11.00
2022-12-22T05:49:20.200Z,11.00
2022-12-22T05:51:46.658Z,11.00
2022-12-22T05:54:13.135Z,11.00
2022-12-22T05:56:39.593Z,11.10
2022-12-22T05:59:06.059Z,11.00
2022-12-22T06:01:32.549Z,11.00
2022-12-22T06:04:00.681Z,11.00
2022-12-22T06:06:27.454Z,11.00
2022-12-22T06:08:53.937Z,11.00
2022-12-22T06:11:20.414Z,11.00
2022-12-22T06:13:46.884Z,11.00
2022-12-22T06:16:13.379Z,11.10
2022-12-22T06:18:39.886Z,11.00
2022-12-22T06:21:06.352Z,11.00
2022-12-22T06:23:32.838Z,11.00
2022-12-22T06:25:59.315Z,11.00
2022-12-22T06:28:25.785Z,10.90
2022-12-22T06:30:52.353Z,10.90
2022-12-22T06:33:18.915Z,10.90
2022-12-22T06:35:45.386Z,10.90
2022-12-22T06:38:11.876Z,10.90
2022-12-22T06:40:38.348Z,11.00
2022-12-22T06:43:08.734Z,10.90
2022-12-22T06:45:35.959Z,11.00
2022-12-22T06:48:02.468Z,10.90
2022-12-22T06:50:28.976Z,10.90
2022-12-22T06:52:55.441Z,10.90
2022-12-22T06:55:21.919Z,10.90
2022-12-22T06:57:48.393Z,10.90
2022-12-22T07:00:14.878Z,10.90
2022-12-22T07:02:41.545Z,11.00
2022-12-22T07:05:08.111Z,11.00
2022-12-22T07:07:34.575Z,11.00
2022-12-22T07:10:01.083Z,11.00
2022-12-22T07:12:27.563Z,10.90
2022-12-22T07:14:54.011Z,11.00
2022-12-22T07:17:20.509Z,10.90
2022-12-22T07:19:46.948Z,10.90
2022-12-22T07:22:13.427Z,10.90
2022-12-22T07:24:39.886Z,10.90
2022-12-22T07:27:06.361Z,11.00
2022-12-22T07:29:32.837Z,11.00
2022-12-22T07:31:59.312Z,10.90
2022-12-22T07:34:25.771Z,11.00
2022-12-22T07:36:52.253Z,11.00
2022-12-22T07:39:18.716Z,11.10
2022-12-22T07:41:45.189Z,11.00
2022-12-22T07:44:11.655Z,11.10
2022-12-22T07:46:38.215Z,11.10
2022-12-22T07:49:04.724Z,11.10
2022-12-22T07:51:31.177Z,11.10
2022-12-22T07:53:57.659Z,11.10
2022-12-22T07:56:24.137Z,11.10
2022-12-22T07:58:50.603Z,11.20
2022-12-22T08:01:17.058Z,11.10
2022-12-22T08:03:43.535Z,11.10
2022-12-22T08:06:10.109Z,11.20
2022-12-22T08:08:36.557Z,11.10
2022-12-22T08:11:03.041Z,11.10
2022-12-22T08:13:29.542Z,11.10
2022-12-22T08:15:56.070Z,11.10
2022-12-22T08:18:28.274Z,11.10
2022-12-22T08:20:54.769Z,11.10
2022-12-22T08:23:21.242Z,11.20
2022-12-22T08:25:47.710Z,11.20
2022-12-22T08:28:14.252Z,11.20
2022-12-22T08:30:40.721Z,11.20
2022-12-22T08:33:07.209Z,11.10
2022-12-22T08:35:33.686Z,11.10
2022-12-22T08:38:00.163Z,11.10
2022-12-22T08:40:26.624Z,11.10
2022-12-22T08:42:53.091Z,11.10
2022-12-22T08:45:19.542Z,11.10
2022-12-22T08:47:46.037Z,11.10
2022-12-22T08:50:12.511Z,11.10
2022-12-22T08:52:38.984Z,11.10
2022-12-22T08:55:05.473Z,11.00
2022-12-22T08:57:31.948Z,11.00
2022-12-22T08:59:58.403Z,11.10
2022-12-22T09:02:24.957Z,11.10
2022-12-22T09:04:51.542Z,11.10
2022-12-22T09:07:17.999Z,11.00
2022-12-22T09:09:44.480Z,11.10
2022-12-22T09:12:10.957Z,11.00
2022-12-22T09:14:37.426Z,11.00
2022-12-22T09:17:03.955Z,11.00
2022-12-22T09:19:30.434Z,11.00
2022-12-22T09:21:56.899Z,11.00
2022-12-22T09:24:23.388Z,11.00
2022-12-22T09:26:49.893Z,11.10
2022-12-22T09:29:16.389Z,11.00
2022-12-22T09:31:42.899Z,11.00
2022-12-22T09:34:15.187Z,11.00
2022-12-22T09:36:43.919Z,11.10
2022-12-22T09:39:10.402Z,11.10
2022-12-22T09:41:36.877Z,11.00
2022-12-22T09:44:03.355Z,11.00
2022-12-22T09:46:29.921Z,11.00
2022-12-22T09:48:56.467Z,11.10
2022-12-22T09:51:27.067Z,11.10
2022-12-22T09:53:53.989Z,11.10
2022-12-22T09:56:20.471Z,11.00
2022-12-22T09:58:46.950Z,11.00
2022-12-22T10:01:13.453Z,11.00
2022-12-22T10:03:40.031Z,11.00
2022-12-22T10:06:06.605Z,11.00
2022-12-22T10:08:33.068Z,11.00
2022-12-22T10:10:59.525Z,11.10
2022-12-22T10:13:25.984Z,11.10
2022-12-22T10:15:52.453Z,11.10
2022-12-22T10:18:18.923Z,11.10
2022-12-22T10:20:45.403Z,11.00
2022-12-22T10:23:11.877Z,11.10
2022-12-22T10:26:26.263Z,11.10
2022-12-22T10:28:24.812Z,11.10
2022-12-22T10:30:51.275Z,11.00
2022-12-22T10:33:17.734Z,11.00
2022-12-22T10:35:44.219Z,11.00
2022-12-22T10:38:21.431Z,11.00
2022-12-22T10:40:48.524Z,11.00
2022-12-22T10:43:14.993Z,11.00
2022-12-22T10:45:41.500Z,11.00
2022-12-22T10:48:07.976Z,11.00
2022-12-22T10:50:34.448Z,11.00
2022-12-22T10:53:00.913Z,11.00
2022-12-22T10:55:27.386Z,11.10
2022-12-22T10:57:53.851Z,11.00
2022-12-22T11:00:20.313Z,11.00
2022-12-22T11:02:46.894Z,11.10
2022-12-22T11:05:13.431Z,11.10
2022-12-22T11:07:39.897Z,11.20
2022-12-22T11:10:06.388Z,11.20
2022-12-22T11:12:32.886Z,11.20
2022-12-22T11:14:59.385Z,11.20
2022-12-22T11:17:25.843Z,11.30
2022-12-22T11:19:52.285Z,11.40
2022-12-22T11:22:18.765Z,11.40
2022-12-22T11:24:45.248Z,11.30
2022-12-22T11:27:11.740Z,11.30
2022-12-22T11:29:38.206Z,11.30
2022-12-22T11:32:04.675Z,11.30
2022-12-22T11:34:31.151Z,11.10
2022-12-22T11:36:57.635Z,11.20
2022-12-22T11:39:24.099Z,11.10
2022-12-22T11:41:50.567Z,11.10
2022-12-22T11:44:17.032Z,11.30
2022-12-22T11:46:43.580Z,11.20
2022-12-22T11:49:10.056Z,11.30
2022-12-22T11:51:36.526Z,11.40
2022-12-22T11:54:10.337Z,11.30
2022-12-22T11:56:37.451Z,11.30
2022-12-22T11:59:03.921Z,11.30
2022-12-22T12:01:30.483Z,11.30
2022-12-22T12:03:57.050Z,11.30
2022-12-22T12:06:23.529Z,11.30
2022-12-22T12:08:49.995Z,11.30
2022-12-22T12:11:16.473Z,11.40
2022-12-22T12:13:42.964Z,11.40
2022-12-22T12:16:09.506Z,11.40
2022-12-22T12:18:36.032Z,11.40
2022-12-22T12:21:02.509Z,11.40
2022-12-22T12:23:28.968Z,11.40
2022-12-22T12:25:55.431Z,11.40
2022-12-22T12:28:21.882Z,11.40
2022-12-22T12:30:48.369Z,11.40
2022-12-22T12:33:14.826Z,11.40
2022-12-22T12:35:41.327Z,11.40
2022-12-22T12:38:07.776Z,11.40
2022-12-22T12:40:34.249Z,11.30
2022-12-22T12:43:00.703Z,11.40
2022-12-22T12:45:27.170Z,11.40
2022-12-22T12:47:53.644Z,11.40
2022-12-22T12:50:20.128Z,11.40
2022-12-22T12:52:46.588Z,11.50
2022-12-22T12:55:17.122Z,11.40
2022-12-22T12:57:47.049Z,11.40
2022-12-22T13:00:13.553Z,11.50
2022-12-22T13:02:40.122Z,11.40
2022-12-22T13:05:06.787Z,11.40
2022-12-22T13:07:33.268Z,11.40
2022-12-22T13:09:59.743Z,11.50
2022-12-22T13:12:26.221Z,11.40
2022-12-22T13:14:52.689Z,11.40
2022-12-22T13:17:19.213Z,11.50
2022-12-22T13:19:45.708Z,11.40
2022-12-22T13:22:12.189Z,11.50
2022-12-22T13:24:41.288Z,11.50
2022-12-22T13:27:10.203Z,11.40
2022-12-22T13:32:20.869Z,11.50
2022-12-22T13:35:28.442Z,11.50
2022-12-22T13:37:33.777Z,11.40
2022-12-22T13:40:00.250Z,11.40
2022-12-22T13:42:26.813Z,11.50
2022-12-22T13:44:53.341Z,11.50
2022-12-22T13:47:19.939Z,11.50
2022-12-22T13:50:07.752Z,11.50
2022-12-22T13:52:32.863Z,11.50
2022-12-22T13:54:59.317Z,11.50
2022-12-22T13:57:25.779Z,11.40
2022-12-22T13:59:52.239Z,11.40
2022-12-22T14:02:18.791Z,11.50
2022-12-22T14:04:49.060Z,11.40
2022-12-22T14:07:18.461Z,11.40
2022-12-22T14:09:44.961Z,11.40
2022-12-22T14:12:11.442Z,11.40
2022-12-22T14:14:37.914Z,11.50
2022-12-22T14:17:04.395Z,11.50
2022-12-22T14:19:30.888Z,11.50
2022-12-22T14:21:57.394Z,11.50
2022-12-22T14:24:23.861Z,11.50
2022-12-22T14:26:50.323Z,11.50
2022-12-22T14:29:16.777Z,11.50
2022-12-22T14:31:43.313Z,11.50
2022-12-22T14:34:09.809Z,11.40
2022-12-22T14:36:40.684Z,11.40
2022-12-22T14:39:09.673Z,11.50
2022-12-22T14:41:36.369Z,11.40
2022-12-22T14:44:02.836Z,11.50
2022-12-22T14:46:35.090Z,11.50
2022-12-22T14:49:04.995Z,11.40
2022-12-22T14:51:31.457Z,11.40
2022-12-22T14:53:57.916Z,11.40
2022-12-22T14:56:24.386Z,11.40
2022-12-22T14:58:50.870Z,11.50
2022-12-22T15:01:17.438Z,11.50
2022-12-22T15:03:44.025Z,11.50
2022-12-22T15:06:10.549Z,11.50
2022-12-22T15:08:38.843Z,11.40
2022-12-22T15:11:05.504Z,11.40
2022-12-22T15:13:31.972Z,11.50
2022-12-22T15:15:58.463Z,11.50
2022-12-22T15:18:24.976Z,11.50
2022-12-22T15:20:51.480Z,11.50
2022-12-22T15:23:17.979Z,11.40
2022-12-22T15:25:44.477Z,11.50
2022-12-22T15:28:10.942Z,11.50
2022-12-22T15:30:37.473Z,11.50
2022-12-22T15:33:03.973Z,11.40
2022-12-22T15:35:30.521Z,11.30
2022-12-22T15:37:56.996Z,11.40
2022-12-22T15:40:23.483Z,11.30
2022-12-22T15:42:49.943Z,11.40
2022-12-22T15:45:16.389Z,11.50
2022-12-22T15:47:42.839Z,11.50
2022-12-22T15:50:09.303Z,11.40
2022-12-22T15:52:35.781Z,11.30
2022-12-22T15:55:02.258Z,11.40
2022-12-22T15:57:28.737Z,11.40
2022-12-22T15:59:55.191Z,11.50
2022-12-22T16:02:21.846Z,11.40
2022-12-22T16:04:48.471Z,11.50
2022-12-22T16:07:14.943Z,11.40
2022-12-22T16:09:41.417Z,11.50
2022-12-22T16:12:07.903Z,11.50
2022-12-22T16:14:39.869Z,11.50
2022-12-22T16:17:10.121Z,11.40
2022-12-22T16:19:36.587Z,11.50
2022-12-22T16:22:03.062Z,11.50
2022-12-22T16:24:29.537Z,11.50
2022-12-22T16:26:56.038Z,11.50
2022-12-22T16:29:22.491Z,11.40
2022-12-22T16:31:48.999Z,11.40
2022-12-22T16:34:15.498Z,11.40
2022-12-22T16:36:41.978Z,11.30
2022-12-22T16:39:08.444Z,11.40
2022-12-22T16:41:34.921Z,11.40
2022-12-22T16:46:45.593Z,11.40
2022-12-22T16:49:12.102Z,11.40
2022-12-22T16:51:38.587Z,11.40
2022-12-22T16:54:05.093Z,11.40
2022-12-22T16:56:31.652Z,11.40
2022-12-22T16:58:58.128Z,11.30
2022-12-22T17:01:24.746Z,11.30
2022-12-22T17:03:51.470Z,11.30
2022-12-22T17:06:21.088Z,11.30
2022-12-22T17:08:47.608Z,11.40
2022-12-22T17:11:14.049Z,11.30
2022-12-22T17:13:41.784Z,11.30
2022-12-22T17:16:08.297Z,11.40
2022-12-22T17:18:34.810Z,11.40
2022-12-22T17:21:01.278Z,11.30
2022-12-22T17:23:27.744Z,11.30
2022-12-22T17:25:54.189Z,11.30
2022-12-22T17:28:20.670Z,11.30
2022-12-22T17:30:47.181Z,11.40
2022-12-22T17:33:13.665Z,11.40
2022-12-22T17:35:40.145Z,11.30
2022-12-22T17:38:06.613Z,11.30
2022-12-22T17:40:33.139Z,11.30
2022-12-22T17:42:59.691Z,11.30
2022-12-22T17:45:26.163Z,11.30
2022-12-22T17:47:52.656Z,11.40
2022-12-22T17:50:19.133Z,11.40
2022-12-22T17:52:45.614Z,11.40
2022-12-22T17:55:12.082Z,11.40
2022-12-22T17:57:38.567Z,11.50
2022-12-22T18:00:05.043Z,11.50
2022-12-22T18:02:31.613Z,11.50
2022-12-22T18:04:58.221Z,11.40
2022-12-22T18:07:24.747Z,11.50
2022-12-22T18:09:51.251Z,11.40
2022-12-22T18:12:17.714Z,11.40
2022-12-22T18:14:44.184Z,11.40
2022-12-22T18:17:10.656Z,11.40
2022-12-22T18:19:37.139Z,11.40
2022-12-22T18:22:03.612Z,11.40
2022-12-22T18:24:30.084Z,11.40
2022-12-22T18:26:56.540Z,11.40
2022-12-22T18:29:23.003Z,11.50
2022-12-22T18:31:49.562Z,11.50
2022-12-22T18:34:16.126Z,11.40
2022-12-22T18:36:42.801Z,11.40
2022-12-22T18:39:14.983Z,11.50
2022-12-22T18:41:43.305Z,11.50
2022-12-22T18:44:09.798Z,11.40
2022-12-22T18:46:36.317Z,11.50
2022-12-22T18:49:05.802Z,11.50
2022-12-22T18:51:32.771Z,11.50
2022-12-22T18:53:59.296Z,11.50
2022-12-22T18:56:25.761Z,11.50
2022-12-22T18:58:52.262Z,11.40
2022-12-22T19:01:18.823Z,11.40
2022-12-22T19:03:45.365Z,11.40
2022-12-22T19:06:11.847Z,11.30
2022-12-22T19:08:45.173Z,11.40
2022-12-22T19:11:12.373Z,11.40
2022-12-22T19:13:38.902Z,11.40
2022-12-22T19:16:05.461Z,11.40
2022-12-22T19:18:32.004Z,11.40
2022-12-22T19:20:58.476Z,11.50
2022-12-22T19:23:24.945Z,11.50
2022-12-22T19:25:51.407Z,11.50
2022-12-22T19:28:17.856Z,11.50
2022-12-22T19:30:44.340Z,11.50
2022-12-22T19:33:10.866Z,11.50
2022-12-22T19:35:37.386Z,11.50
2022-12-22T19:38:03.858Z,11.50
2022-12-22T19:40:30.336Z,11.50
2022-12-22T19:42:56.794Z,11.50
2022-12-22T19:45:23.283Z,11.50
2022-12-22T19:47:49.748Z,11.50
2022-12-22T19:50:16.231Z,11.50
2022-12-22T19:52:42.716Z,11.40
2022-12-22T19:55:09.198Z,11.50
2022-12-22T19:57:35.663Z,11.50
2022-12-22T20:00:02.219Z,11.50
2022-12-22T20:02:28.925Z,11.50
2022-12-22T20:04:55.502Z,11.50
2022-12-22T20:07:21.966Z,11.50
2022-12-22T20:09:48.435Z,11.50
2022-12-22T20:12:14.926Z,11.50
2022-12-22T20:14:41.387Z,11.50
2022-12-22T20:17:07.868Z,11.40
2022-12-22T20:19:34.445Z,11.40
2022-12-22T20:22:00.943Z,11.40
2022-12-22T20:24:27.445Z,11.40
2022-12-22T20:26:54.973Z,11.40
2022-12-22T20:29:21.541Z,11.40
2022-12-22T20:31:48.094Z,11.30
2022-12-22T20:34:14.598Z,11.40
2022-12-22T20:36:41.095Z,11.40
2022-12-22T20:39:07.557Z,11.30
2022-12-22T20:41:34.036Z,11.30
2022-12-22T20:44:00.519Z,11.30
2022-12-22T20:46:27.080Z,11.30
2022-12-22T20:48:53.641Z,11.30
2022-12-22T20:51:20.105Z,11.30
2022-12-22T20:53:46.580Z,11.30
2022-12-22T20:56:13.045Z,11.30
2022-12-22T20:58:39.513Z,11.20
2022-12-22T21:01:06.025Z,11.20
2022-12-22T21:03:32.664Z,11.30
2022-12-22T21:05:59.194Z,11.30
2022-12-22T21:08:25.652Z,11.30
2022-12-22T21:10:52.145Z,11.20
2022-12-22T21:13:18.627Z,11.30
2022-12-22T21:15:45.112Z,11.30
2022-12-22T21:18:11.575Z,11.30
2022-12-22T21:20:38.044Z,11.20
2022-12-22T21:23:04.500Z,11.20
2022-12-22T21:25:30.965Z,11.30
2022-12-22T21:27:57.418Z,11.30
2022-12-22T21:30:23.901Z,11.30
2022-12-22T21:32:50.340Z,11.30
2022-12-22T21:35:16.823Z,11.30
2022-12-22T21:37:43.292Z,11.30
2022-12-22T21:40:09.760Z,11.30
2022-12-22T21:42:36.256Z,11.30
2022-12-22T21:45:02.729Z,11.30
2022-12-22T21:47:29.211Z,11.30
2022-12-22T21:49:55.677Z,11.40
2022-12-22T21:52:22.155Z,11.30
2022-12-22T21:54:48.612Z,11.30
2022-12-22T21:57:15.094Z,11.30
2022-12-22T21:59:41.595Z,11.40
2022-12-22T22:02:08.122Z,11.30
2022-12-22T22:04:34.647Z,11.30
2022-12-22T22:07:01.113Z,11.30
2022-12-22T22:09:27.573Z,11.30
2022-12-22T22:11:54.048Z,11.30
2022-12-22T22:14:20.525Z,11.30
2022-12-22T22:16:46.997Z,11.20
2022-12-22T22:19:13.447Z,11.30
2022-12-22T22:21:39.927Z,11.30
2022-12-22T22:24:06.389Z,11.30
2022-12-22T22:26:32.847Z,11.30
2022-12-22T22:28:59.317Z,11.30
2022-12-22T22:31:25.845Z,11.30
2022-12-22T22:33:52.440Z,11.30
2022-12-22T22:36:18.916Z,11.30
2022-12-22T22:38:45.381Z,11.30
2022-12-22T22:41:11.834Z,11.30
2022-12-22T22:43:38.285Z,11.30
2022-12-22T22:46:04.818Z,11.30
2022-12-22T22:48:31.348Z,11.30
2022-12-22T22:50:57.819Z,11.30
2022-12-22T22:53:24.302Z,11.30
2022-12-22T22:55:50.754Z,11.30
2022-12-22T22:58:18.098Z,11.30
2022-12-22T23:00:44.571Z,11.30
2022-12-22T23:03:11.206Z,11.30
2022-12-22T23:05:37.766Z,11.30
2022-12-22T23:08:04.233Z,11.30
2022-12-22T23:10:33.663Z,11.30
2022-12-22T23:13:02.595Z,11.30
2022-12-22T23:15:29.051Z,11.30
2022-12-22T23:17:55.529Z,11.30
2022-12-22T23:20:22.016Z,11.30
2022-12-22T23:22:48.486Z,11.30
2022-12-22T23:25:14.966Z,11.30
2022-12-22T23:27:41.410Z,11.30
2022-12-22T23:30:07.879Z,11.30
2022-12-22T23:32:34.342Z,11.30
2022-12-22T23:35:00.807Z,11.30
2022-12-22T23:37:27.285Z,11.30
2022-12-22T23:39:53.775Z,11.40
2022-12-22T23:42:20.230Z,11.40
2022-12-22T23:44:46.692Z,11.30
2022-12-22T23:47:13.241Z,11.30
2022-12-22T23:49:39.750Z,11.40
2022-12-22T23:52:06.265Z,11.30
2022-12-22T23:54:32.734Z,11.30
2022-12-22T23:56:59.206Z,11.30
2022-12-22T23:59:25.677Z,11.30
